createdAt,value
2017-11-08T00:01:15.680Z,93.50
2017-11-08T00:03:44.699Z,93.50
2017-11-08T00:06:12.958Z,93.50
2017-11-08T00:08:41.205Z,93.50
2017-11-08T00:11:09.452Z,93.50
2017-11-08T00:13:37.697Z,93.50
2017-11-08T00:16:07.784Z,93.60
2017-11-08T00:18:36.796Z,93.60
2017-11-08T00:21:05.052Z,93.60
2017-11-08T00:23:35.917Z,93.60
2017-11-08T00:26:04.183Z,93.60
2017-11-08T00:28:33.179Z,93.60
2017-11-08T00:31:01.431Z,93.60
2017-11-08T00:33:30.433Z,93.70
2017-11-08T00:35:59.461Z,93.70
2017-11-08T00:38:27.717Z,93.70
2017-11-08T00:40:56.740Z,93.60
2017-11-08T00:43:24.972Z,93.60
2017-11-08T00:45:53.988Z,93.60
2017-11-08T00:48:22.238Z,93.60
2017-11-08T00:50:53.190Z,93.60
2017-11-08T00:53:22.186Z,93.60
2017-11-08T00:55:51.233Z,93.60
2017-11-08T00:58:19.490Z,93.60
2017-11-08T01:00:47.741Z,93.50
2017-11-08T01:03:15.993Z,93.50
2017-11-08T01:05:45.023Z,93.60
2017-11-08T01:08:13.262Z,93.60
2017-11-08T01:10:42.280Z,93.60
2017-11-08T01:13:10.523Z,93.60
2017-11-08T01:15:38.795Z,93.70
2017-11-08T01:18:07.038Z,93.80
2017-11-08T01:20:35.306Z,93.80
2017-11-08T01:23:03.545Z,93.90
2017-11-08T01:25:32.585Z,93.80
2017-11-08T01:28:00.837Z,93.80
2017-11-08T01:30:29.091Z,93.80
2017-11-08T01:32:57.337Z,93.80
2017-11-08T01:35:25.608Z,93.80
2017-11-08T01:37:55.635Z,93.80
2017-11-08T01:40:23.899Z,93.90
2017-11-08T01:42:52.133Z,93.80
2017-11-08T01:45:20.394Z,93.80
2017-11-08T01:47:49.412Z,93.80
2017-11-08T01:50:17.674Z,93.80
2017-11-08T01:52:45.920Z,93.80
2017-11-08T01:55:14.191Z,93.80
2017-11-08T01:57:42.425Z,93.80
2017-11-08T02:00:10.674Z,93.80
2017-11-08T02:02:39.692Z,93.80
2017-11-08T02:05:07.941Z,93.80
2017-11-08T02:07:36.200Z,93.90
2017-11-08T02:10:05.202Z,93.80
2017-11-08T02:12:34.225Z,93.70
2017-11-08T02:15:02.465Z,93.80
2017-11-08T02:17:31.489Z,93.70
2017-11-08T02:19:59.732Z,93.70
2017-11-08T02:22:28.764Z,93.70
2017-11-08T02:25:00.161Z,93.70
2017-11-08T02:27:34.205Z,93.70
2017-11-08T02:30:02.451Z,93.70
2017-11-08T02:32:30.713Z,93.60
2017-11-08T02:34:58.952Z,93.60
2017-11-08T02:37:27.210Z,93.60
2017-11-08T02:39:55.465Z,93.60
2017-11-08T02:42:23.731Z,93.60
2017-11-08T02:44:51.975Z,93.40
2017-11-08T02:47:20.237Z,93.70
2017-11-08T02:49:48.491Z,93.70
2017-11-08T02:52:17.510Z,93.80
2017-11-08T02:54:45.758Z,93.80
2017-11-08T02:57:14.795Z,93.80
2017-11-08T02:59:43.807Z,93.90
2017-11-08T03:02:12.079Z,93.90
2017-11-08T03:04:47.101Z,94.00
2017-11-08T03:07:15.356Z,94.00
2017-11-08T03:09:43.605Z,94.00
2017-11-08T03:12:12.635Z,94.00
2017-11-08T03:14:40.881Z,94.00
2017-11-08T03:17:09.905Z,94.10
2017-11-08T03:19:38.142Z,94.10
2017-11-08T03:22:07.170Z,94.10
2017-11-08T03:24:35.410Z,94.10
2017-11-08T03:27:03.678Z,94.10
2017-11-08T03:29:31.912Z,94.10
2017-11-08T03:32:00.180Z,94.10
2017-11-08T03:34:28.414Z,94.10
2017-11-08T03:36:57.433Z,94.10
2017-11-08T03:39:25.677Z,94.10
2017-11-08T03:41:54.709Z,94.10
2017-11-08T03:44:22.952Z,94.10
2017-11-08T03:46:51.973Z,94.10
2017-11-08T03:49:20.217Z,94.10
2017-11-08T03:51:49.240Z,94.20
2017-11-08T03:54:17.476Z,94.20
2017-11-08T03:56:45.744Z,94.20
2017-11-08T03:59:13.982Z,94.30
2017-11-08T04:01:42.246Z,94.30
2017-11-08T04:04:10.493Z,94.30
2017-11-08T04:06:39.516Z,94.30
2017-11-08T04:09:07.783Z,94.30
2017-11-08T04:11:36.623Z,94.40
2017-11-08T04:14:04.975Z,94.50
2017-11-08T04:16:33.500Z,94.70
2017-11-08T04:19:02.024Z,94.70
2017-11-08T04:21:30.313Z,94.60
2017-11-08T04:23:58.585Z,94.70
2017-11-08T04:26:26.840Z,94.80
2017-11-08T04:28:55.085Z,94.90
2017-11-08T04:31:23.341Z,94.90
2017-11-08T04:33:51.582Z,94.90
2017-11-08T04:36:19.842Z,94.90
2017-11-08T04:38:48.859Z,95.00
2017-11-08T04:41:17.108Z,95.00
2017-11-08T04:43:45.358Z,95.10
2017-11-08T04:46:13.611Z,95.10
2017-11-08T04:48:41.848Z,95.10
2017-11-08T04:51:10.101Z,95.20
2017-11-08T04:53:38.414Z,95.20
2017-11-08T04:56:06.667Z,95.20
2017-11-08T04:58:34.913Z,95.20
2017-11-08T05:01:03.175Z,95.20
2017-11-08T05:03:31.413Z,95.10
2017-11-08T05:05:59.653Z,95.20
2017-11-08T05:08:28.676Z,95.50
2017-11-08T05:10:56.922Z,95.50
2017-11-08T05:13:25.944Z,95.60
2017-11-08T05:15:54.201Z,95.60
2017-11-08T05:18:23.221Z,95.70
2017-11-08T05:20:51.466Z,95.70
2017-11-08T05:23:20.493Z,95.70
2017-11-08T05:25:48.746Z,95.70
2017-11-08T05:28:17.769Z,95.60
2017-11-08T05:30:46.238Z,95.60
2017-11-08T05:33:14.609Z,95.50
2017-11-08T05:35:43.026Z,95.50
2017-11-08T05:38:12.247Z,95.60
2017-11-08T05:40:41.359Z,95.80
2017-11-08T05:43:09.779Z,95.70
2017-11-08T05:45:38.060Z,95.70
2017-11-08T05:48:06.317Z,95.70
2017-11-08T05:50:34.557Z,95.70
2017-11-08T05:53:02.813Z,95.60
2017-11-08T05:55:31.054Z,95.60
2017-11-08T05:57:59.309Z,95.60
2017-11-08T06:00:28.309Z,95.70
2017-11-08T06:02:57.269Z,95.70
2017-11-08T06:05:25.518Z,95.80
2017-11-08T06:07:53.783Z,95.80
2017-11-08T06:10:22.021Z,95.80
2017-11-08T06:12:51.054Z,95.80
2017-11-08T06:15:19.318Z,95.80
2017-11-08T06:17:47.572Z,95.70
2017-11-08T06:20:16.585Z,95.90
2017-11-08T06:22:44.832Z,95.90
2017-11-08T06:25:13.835Z,95.90
2017-11-08T06:27:42.092Z,95.90
2017-11-08T06:30:11.096Z,96.00
2017-11-08T06:32:40.120Z,96.00
2017-11-08T06:35:08.385Z,96.00
2017-11-08T06:37:36.638Z,96.00
2017-11-08T06:40:06.490Z,96.20
2017-11-08T06:42:34.740Z,96.20
2017-11-08T06:45:03.746Z,96.40
2017-11-08T06:47:32.009Z,96.40
2017-11-08T06:50:01.020Z,96.30
2017-11-08T06:52:29.278Z,96.30
2017-11-08T06:54:58.286Z,96.50
2017-11-08T06:57:26.706Z,96.50
2017-11-08T06:59:54.965Z,96.60
2017-11-08T07:02:23.224Z,96.70
2017-11-08T07:04:51.469Z,96.60
2017-11-08T07:07:20.534Z,96.50
2017-11-08T07:09:48.797Z,96.50
2017-11-08T07:12:17.366Z,96.50
2017-11-08T07:14:45.602Z,96.50
2017-11-08T07:17:14.626Z,96.80
2017-11-08T07:19:44.109Z,96.60
2017-11-08T07:22:13.143Z,96.60
2017-11-08T07:24:41.385Z,96.50
2017-11-08T07:27:09.655Z,96.50
2017-11-08T07:29:38.657Z,96.20
2017-11-08T07:32:06.918Z,96.20
2017-11-08T07:34:35.917Z,96.00
2017-11-08T07:37:04.176Z,96.00
2017-11-08T07:39:33.181Z,96.00
2017-11-08T07:42:02.205Z,95.90
2017-11-08T07:44:30.440Z,95.90
2017-11-08T07:46:59.460Z,95.90
2017-11-08T07:49:27.705Z,95.90
2017-11-08T07:51:56.868Z,95.90
2017-11-08T07:54:25.130Z,96.20
2017-11-08T07:56:56.298Z,96.20
2017-11-08T07:59:25.334Z,96.40
2017-11-08T08:01:54.356Z,96.50
2017-11-08T08:04:22.599Z,96.50
2017-11-08T08:06:51.756Z,96.60
2017-11-08T08:09:20.023Z,96.60
2017-11-08T08:11:48.289Z,96.60
2017-11-08T08:14:16.532Z,96.50
2017-11-08T08:16:45.590Z,96.00
2017-11-08T08:19:18.907Z,96.10
2017-11-08T08:21:47.172Z,95.90
2017-11-08T08:24:15.441Z,96.00
2017-11-08T08:26:49.420Z,96.00
2017-11-08T08:29:17.672Z,96.10
2017-11-08T08:31:46.688Z,96.10
2017-11-08T08:34:14.956Z,96.10
2017-11-08T08:36:43.203Z,95.90
2017-11-08T08:39:12.233Z,95.90
2017-11-08T08:41:40.490Z,95.90
2017-11-08T08:44:08.757Z,95.90
2017-11-08T08:46:37.010Z,95.80
2017-11-08T08:49:05.282Z,95.70
2017-11-08T08:51:33.532Z,95.70
2017-11-08T08:54:01.850Z,95.70
2017-11-08T08:56:30.905Z,95.60
2017-11-08T08:58:59.286Z,95.60
2017-11-08T09:01:27.525Z,95.70
2017-11-08T09:03:55.873Z,95.80
2017-11-08T09:06:24.888Z,95.70
2017-11-08T09:08:53.146Z,95.70
2017-11-08T09:11:22.164Z,95.80
2017-11-08T09:13:50.424Z,95.80
2017-11-08T09:16:19.429Z,95.70
2017-11-08T09:18:47.701Z,95.70
2017-11-08T09:21:16.716Z,95.80
2017-11-08T09:23:44.993Z,95.80
2017-11-08T09:26:16.197Z,95.80
2017-11-08T09:28:44.445Z,95.80
2017-11-08T09:31:18.449Z,95.90
2017-11-08T09:33:46.714Z,95.90
2017-11-08T09:36:14.964Z,95.90
2017-11-08T09:38:43.246Z,95.90
2017-11-08T09:41:11.488Z,96.00
2017-11-08T09:43:39.773Z,96.00
2017-11-08T09:46:08.012Z,96.00
2017-11-08T09:48:36.282Z,96.00
2017-11-08T09:51:04.581Z,96.00
2017-11-08T09:53:32.996Z,96.00
2017-11-08T09:56:08.108Z,96.00
2017-11-08T09:58:36.381Z,96.00
2017-11-08T10:01:10.238Z,96.00
2017-11-08T10:03:38.514Z,95.90
2017-11-08T10:06:09.576Z,95.80
2017-11-08T10:08:40.847Z,95.90
2017-11-08T10:11:12.919Z,95.90
2017-11-08T10:13:41.231Z,95.90
2017-11-08T10:16:09.564Z,95.90
2017-11-08T10:18:37.826Z,95.90
2017-11-08T10:21:06.076Z,96.00
2017-11-08T10:23:40.950Z,96.10
2017-11-08T10:26:09.220Z,96.20
2017-11-08T10:28:37.465Z,96.40
2017-11-08T10:31:05.725Z,96.60
2017-11-08T10:33:34.019Z,96.70
2017-11-08T10:36:02.289Z,96.90
2017-11-08T10:38:30.537Z,96.90
2017-11-08T10:40:58.790Z,96.90
2017-11-08T10:43:27.786Z,97.00
2017-11-08T10:45:56.034Z,96.90
2017-11-08T10:48:28.001Z,97.00
2017-11-08T10:50:57.014Z,97.00
2017-11-08T10:53:25.276Z,97.00
2017-11-08T10:55:54.303Z,97.20
2017-11-08T10:58:22.570Z,97.20
2017-11-08T11:00:50.816Z,97.40
2017-11-08T11:03:19.842Z,97.70
2017-11-08T11:05:48.127Z,97.70
2017-11-08T11:08:16.398Z,97.80
2017-11-08T11:10:44.646Z,97.90
2017-11-08T11:13:15.321Z,98.00
2017-11-08T11:15:43.590Z,98.00
2017-11-08T11:18:11.893Z,98.20
2017-11-08T11:20:40.958Z,98.40
2017-11-08T11:23:09.222Z,98.40
2017-11-08T11:25:37.470Z,98.60
2017-11-08T11:28:06.503Z,98.80
2017-11-08T11:30:34.750Z,98.80
2017-11-08T11:33:06.710Z,99.00
2017-11-08T11:35:35.717Z,99.00
2017-11-08T11:38:04.926Z,99.00
2017-11-08T11:40:33.184Z,98.90
2017-11-08T11:43:02.219Z,98.90
2017-11-08T11:45:30.472Z,98.80
2017-11-08T11:48:00.643Z,98.90
2017-11-08T11:50:31.889Z,99.00
2017-11-08T11:53:00.143Z,99.00
2017-11-08T11:55:28.403Z,99.00
2017-11-08T11:57:56.650Z,99.00
2017-11-08T12:00:25.692Z,99.10
2017-11-08T12:02:53.952Z,99.10
2017-11-08T12:05:22.201Z,99.10
2017-11-08T12:07:51.206Z,99.20
2017-11-08T12:10:19.480Z,99.20
2017-11-08T12:12:48.506Z,98.90
2017-11-08T12:15:16.758Z,98.90
2017-11-08T12:17:45.008Z,98.90
2017-11-08T12:20:13.269Z,99.00
2017-11-08T12:22:41.518Z,99.40
2017-11-08T12:25:09.794Z,99.00
2017-11-08T12:27:38.967Z,99.00
2017-11-08T12:30:07.778Z,99.00
2017-11-08T12:32:35.995Z,99.00
2017-11-08T12:35:07.170Z,99.00
2017-11-08T12:37:35.425Z,99.10
2017-11-08T12:40:04.461Z,99.10
2017-11-08T12:42:32.749Z,99.10
2017-11-08T12:45:06.551Z,99.00
2017-11-08T12:47:37.374Z,98.90
2017-11-08T12:50:05.633Z,98.90
2017-11-08T12:52:34.647Z,98.80
2017-11-08T12:55:04.047Z,98.80
2017-11-08T12:57:37.489Z,98.80
2017-11-08T13:00:06.121Z,98.80
2017-11-08T13:02:35.823Z,98.80
2017-11-08T13:05:05.388Z,98.80
2017-11-08T13:07:35.866Z,98.80
2017-11-08T13:10:04.452Z,98.70
2017-11-08T13:12:34.071Z,98.70
2017-11-08T13:15:02.894Z,98.70
2017-11-08T13:17:32.411Z,98.70
2017-11-08T13:20:00.916Z,98.70
2017-11-08T13:22:29.458Z,98.60
2017-11-08T13:24:58.537Z,98.50
2017-11-08T13:27:26.776Z,98.50
2017-11-08T13:29:55.807Z,98.40
2017-11-08T13:32:24.054Z,98.40
2017-11-08T13:34:52.325Z,98.40
2017-11-08T13:37:21.337Z,98.50
2017-11-08T13:39:50.381Z,98.50
2017-11-08T13:42:19.423Z,98.40
2017-11-08T13:44:48.649Z,98.50
2017-11-08T13:47:16.910Z,98.50
2017-11-08T13:49:45.165Z,98.60
2017-11-08T13:52:13.419Z,98.60
2017-11-08T13:54:42.582Z,98.20
2017-11-08T13:57:10.836Z,98.40
2017-11-08T13:59:39.103Z,98.40
2017-11-08T14:02:07.357Z,98.40
2017-11-08T14:04:36.394Z,98.30
2017-11-08T14:07:04.636Z,98.30
2017-11-08T14:09:33.668Z,98.20
2017-11-08T14:12:01.922Z,98.20
2017-11-08T14:14:30.180Z,98.20
2017-11-08T14:16:59.202Z,98.40
2017-11-08T14:19:27.468Z,98.40
2017-11-08T14:21:55.718Z,98.40
2017-11-08T14:24:24.750Z,98.40
2017-11-08T14:26:52.999Z,98.40
2017-11-08T14:29:22.451Z,98.40
2017-11-08T14:31:50.715Z,98.40
2017-11-08T14:34:18.972Z,98.40
2017-11-08T14:36:48.989Z,98.30
2017-11-08T14:39:17.257Z,98.20
2017-11-08T14:41:50.416Z,98.20
2017-11-08T14:44:18.684Z,98.20
2017-11-08T14:46:46.926Z,98.20
2017-11-08T14:49:15.186Z,98.20
2017-11-08T14:51:43.433Z,98.20
2017-11-08T14:54:13.407Z,98.20
2017-11-08T14:56:41.653Z,98.20
2017-11-08T14:59:10.009Z,98.20
2017-11-08T15:01:39.022Z,98.20
2017-11-08T15:04:07.301Z,98.20
2017-11-08T15:06:35.554Z,98.20
2017-11-08T15:09:04.574Z,98.30
2017-11-08T15:11:35.345Z,98.30
2017-11-08T15:14:04.392Z,98.30
2017-11-08T15:16:32.644Z,98.30
2017-11-08T15:19:00.906Z,98.30
2017-11-08T15:21:29.157Z,98.20
2017-11-08T15:23:57.418Z,98.10
2017-11-08T15:26:25.657Z,98.10
2017-11-08T15:28:54.685Z,98.10
2017-11-08T15:31:22.938Z,98.10
2017-11-08T15:33:52.084Z,98.20
2017-11-08T15:36:21.134Z,98.40
2017-11-08T15:38:50.162Z,98.40
2017-11-08T15:41:20.307Z,98.40
2017-11-08T15:43:48.566Z,98.40
2017-11-08T15:46:16.806Z,98.30
2017-11-08T15:48:45.075Z,98.30
2017-11-08T15:51:14.091Z,98.10
2017-11-08T15:53:42.338Z,98.10
2017-11-08T15:56:11.372Z,98.10
2017-11-08T15:58:39.630Z,98.10
2017-11-08T16:01:07.887Z,98.00
2017-11-08T16:03:36.968Z,98.10
2017-11-08T16:06:05.226Z,98.10
2017-11-08T16:08:33.494Z,98.20
2017-11-08T16:11:01.748Z,98.10
2017-11-08T16:13:29.997Z,98.30
2017-11-08T16:15:58.273Z,98.40
2017-11-08T16:18:26.520Z,98.40
2017-11-08T16:20:54.787Z,98.50
2017-11-08T16:23:23.035Z,98.40
2017-11-08T16:25:51.304Z,98.50
2017-11-08T16:28:19.563Z,98.60
2017-11-08T16:30:47.827Z,98.60
2017-11-08T16:33:16.085Z,98.70
2017-11-08T16:35:45.131Z,98.80
2017-11-08T16:38:13.366Z,98.80
2017-11-08T16:40:42.405Z,98.80
2017-11-08T16:43:10.656Z,98.80
2017-11-08T16:45:38.927Z,98.80
2017-11-08T16:48:07.183Z,98.90
2017-11-08T16:50:36.243Z,98.90
2017-11-08T16:53:04.480Z,98.90
2017-11-08T16:55:32.748Z,98.90
2017-11-08T16:58:01.015Z,99.00
2017-11-08T17:00:30.034Z,99.00
2017-11-08T17:02:58.301Z,99.00
2017-11-08T17:05:28.194Z,99.10
2017-11-08T17:07:57.204Z,99.10
2017-11-08T17:10:25.458Z,99.10
2017-11-08T17:12:54.473Z,99.00
2017-11-08T17:15:22.737Z,99.00
2017-11-08T17:17:51.957Z,98.80
2017-11-08T17:20:20.231Z,98.80
2017-11-08T17:22:48.489Z,98.60
2017-11-08T17:25:17.525Z,98.70
2017-11-08T17:27:46.574Z,98.70
2017-11-08T17:30:18.895Z,98.60
2017-11-08T17:32:47.183Z,98.60
2017-11-08T17:35:15.528Z,98.70
2017-11-08T17:38:04.223Z,98.70
2017-11-08T17:40:32.552Z,98.70
2017-11-08T17:43:01.636Z,98.80
2017-11-08T17:45:30.702Z,99.00
2017-11-08T17:47:59.011Z,99.00
2017-11-08T17:50:28.096Z,99.00
2017-11-08T17:52:57.105Z,98.90
2017-11-08T17:55:25.361Z,98.90
2017-11-08T17:57:54.367Z,99.10
2017-11-08T18:00:23.395Z,99.30
2017-11-08T18:02:51.648Z,99.30
2017-11-08T18:05:19.919Z,99.20
2017-11-08T18:07:48.163Z,99.20
2017-11-08T18:10:16.434Z,99.20
2017-11-08T18:12:44.682Z,99.20
2017-11-08T18:15:12.958Z,99.30
2017-11-08T18:17:41.209Z,99.30
2017-11-08T18:20:09.474Z,99.30
2017-11-08T18:22:37.899Z,99.30
2017-11-08T18:25:06.173Z,99.30
2017-11-08T18:27:34.415Z,99.00
2017-11-08T18:30:02.694Z,98.90
2017-11-08T18:32:30.955Z,99.00
2017-11-08T18:34:59.228Z,99.00
2017-11-08T18:37:28.257Z,99.00
2017-11-08T18:39:56.530Z,99.00
2017-11-08T18:42:24.786Z,99.20
2017-11-08T18:44:53.052Z,98.70
2017-11-08T18:47:21.303Z,98.70
2017-11-08T18:49:49.575Z,98.50
2017-11-08T18:52:17.825Z,98.40
2017-11-08T18:54:46.093Z,98.50
2017-11-08T18:57:14.334Z,98.50
2017-11-08T18:59:42.613Z,98.30
2017-11-08T19:02:10.894Z,98.50
2017-11-08T19:04:39.915Z,98.50
2017-11-08T19:07:08.174Z,98.50
2017-11-08T19:09:36.433Z,98.40
2017-11-08T19:12:04.678Z,98.40
2017-11-08T19:14:32.942Z,98.50
2017-11-08T19:17:01.186Z,98.50
2017-11-08T19:19:29.463Z,98.30
2017-11-08T19:21:57.735Z,98.30
2017-11-08T19:24:25.985Z,98.30
2017-11-08T19:27:00.843Z,98.20
2017-11-08T19:29:29.172Z,98.20
2017-11-08T19:31:57.448Z,98.20
2017-11-08T19:34:25.691Z,98.10
2017-11-08T19:36:53.962Z,98.00
2017-11-08T19:39:22.219Z,98.10
2017-11-08T19:41:50.502Z,98.10
2017-11-08T19:44:18.757Z,98.20
2017-11-08T19:46:47.019Z,98.10
2017-11-08T19:49:16.034Z,98.10
2017-11-08T19:51:44.299Z,98.10
2017-11-08T19:54:12.548Z,98.10
2017-11-08T19:56:40.810Z,98.20
2017-11-08T19:59:09.064Z,98.20
2017-11-08T20:01:37.342Z,98.20
2017-11-08T20:04:05.616Z,98.20
2017-11-08T20:06:33.875Z,98.10
2017-11-08T20:09:02.125Z,98.10
2017-11-08T20:11:30.388Z,98.10
2017-11-08T20:13:58.646Z,98.10
2017-11-08T20:16:26.906Z,98.00
2017-11-08T20:18:55.162Z,98.00
2017-11-08T20:21:23.438Z,98.00
2017-11-08T20:23:51.688Z,98.10
2017-11-08T20:26:19.962Z,98.10
2017-11-08T20:28:48.983Z,98.10
2017-11-08T20:31:17.255Z,98.10
2017-11-08T20:33:45.512Z,98.10
2017-11-08T20:36:13.770Z,98.10
2017-11-08T20:38:42.790Z,98.30
2017-11-08T20:41:11.066Z,98.20
2017-11-08T20:43:39.315Z,98.20
2017-11-08T20:46:08.353Z,98.30
2017-11-08T20:48:36.598Z,98.30
2017-11-08T20:51:26.934Z,98.40
2017-11-08T20:53:55.192Z,98.40
2017-11-08T20:56:23.457Z,98.50
2017-11-08T20:58:51.714Z,98.50
2017-11-08T21:01:19.961Z,98.40
2017-11-08T21:03:48.230Z,98.10
2017-11-08T21:06:16.521Z,98.20
2017-11-08T21:08:44.770Z,98.20
2017-11-08T21:11:13.036Z,98.20
2017-11-08T21:13:41.299Z,98.20
2017-11-08T21:16:09.541Z,98.10
2017-11-08T21:18:37.801Z,98.00
2017-11-08T21:21:06.060Z,98.10
2017-11-08T21:23:34.321Z,98.30
2017-11-08T21:26:02.576Z,98.40
2017-11-08T21:28:30.848Z,98.50
2017-11-08T21:30:59.111Z,98.70
2017-11-08T21:33:27.381Z,98.70
2017-11-08T21:35:56.394Z,98.70
2017-11-08T21:38:24.678Z,98.70
2017-11-08T21:46:52.944Z,98.70
2017-11-08T21:52:21.695Z,98.70
2017-11-08T21:54:50.260Z,98.70
2017-11-08T21:57:32.949Z,98.70
2017-11-08T22:06:02.471Z,98.80
2017-11-08T22:08:30.733Z,98.90
2017-11-08T22:10:58.980Z,99.00
2017-11-08T22:13:28.102Z,99.10
2017-11-08T22:25:11.616Z,99.20
2017-11-08T22:27:39.864Z,99.30
2017-11-08T22:30:08.132Z,99.40
2017-11-08T22:32:36.387Z,99.50
2017-11-08T22:35:05.414Z,99.50
2017-11-08T22:37:33.670Z,99.50
2017-11-08T22:40:02.699Z,99.40
2017-11-08T22:42:30.954Z,99.30
2017-11-08T22:44:59.217Z,99.30
2017-11-08T22:47:28.230Z,99.10
2017-11-08T22:49:56.505Z,99.10
2017-11-08T22:52:24.974Z,99.10
2017-11-08T22:54:53.241Z,99.10
2017-11-08T22:57:22.249Z,99.20
2017-11-08T22:59:50.530Z,99.20
2017-11-08T23:02:18.770Z,99.10
2017-11-08T23:04:47.031Z,99.10
2017-11-08T23:07:15.286Z,99.30
2017-11-08T23:09:43.553Z,99.40
2017-11-08T23:12:11.822Z,99.50
2017-11-08T23:14:40.075Z,99.50
2017-11-08T23:17:08.334Z,99.60
2017-11-08T23:19:36.778Z,99.50
2017-11-08T23:22:05.794Z,99.40
2017-11-08T23:24:34.049Z,99.40
2017-11-08T23:27:02.319Z,99.40
2017-11-08T23:29:30.570Z,99.40
2017-11-08T23:31:58.835Z,99.40
2017-11-08T23:34:27.080Z,99.20
2017-11-08T23:36:55.339Z,99.30
2017-11-08T23:39:23.597Z,99.30
2017-11-08T23:41:51.861Z,99.30
2017-11-08T23:44:20.109Z,99.40
2017-11-08T23:46:48.395Z,99.30
2017-11-08T23:49:17.393Z,99.40
2017-11-08T23:51:45.647Z,99.30
2017-11-08T23:54:14.661Z,99.50
2017-11-08T23:56:42.935Z,99.50
2017-11-08T23:59:16.930Z,99.50
